EGGPEGNH

Guest
Details From EGGP - Liverpool John Lennon
To EGNH - Blackpool
Flight Number -
Tags Routegen Generated
Created
Modified
Stats Distance 35 nm / 65 km
Max Altitude 100 ft / 30 m
Waypoints 5
Social Downloads 8
Likes 0
Share

Download

Looking for another format? Having issues loading an existing format? Contact us
Advertisement - Login to hide

Notes

Departing runway 8 EGGP. Arriving runway 9 EGNH.

Route

EGGP +53.34_-002.71 +53.55_-002.80 +53.76_-002.89 EGNH

ID Type Via Altitude (ft/m) Position (lat/lon) Dist (leg/tot) Name
O EGGP APT - 0 / 0 53.33442 / -2.83269 - / 0 nm
+53.34_-002.71 LATLON - 100 / 30 53.33990 / -2.71185 4 / 4 nm
+53.55_-002.80 LATLON - 100 / 30 53.55241 / -2.80213 13 / 17 nm
+53.76_-002.89 LATLON - 100 / 30 53.76492 / -2.89242 13 / 30 nm
O EGNH APT - 0 / 0 53.77088 / -3.01444 4 / 35 nm

Altitude Profile

Advertisement - Login to hide

EGGP

Details ICAO EGGP (LPL)
Name Liverpool John Lennon
Region United Kingdom
Timezone Europe/London (UTC+1.0)
Stats Elevation 81 ft / 25 m (AMSL)
Location 53.333600° -2.849780°
Runways 1
Magnetic Variation 1.123° W

METAR

EGGP 121620Z 30012KT 260V320 CAVOK 19/09 Q1026

Decode

TAF

TAF EGGP 121056Z 1212/1312 29010KT 9999 SCT035 BECMG 1221/1224 12003KT PROB30 1302/1307 8000 BECMG 1310/1312 31010KT

Decode

Departure Runways

ID Width Length Bearing (true/mag) Surface Threshold Overrun Markings Lighting
09 148 ft / 45 m 7,478 ft / 2,279 m 85.58° / 86.70° ASPHALT 194 ft / 59 m 0 ft / 0 m UK-PREC-APP CENTERLINE EDGE THRESHOLD CALVERT
27 148 ft / 45 m 7,478 ft / 2,279 m 265.61° / 266.73° ASPHALT 0 ft / 0 m 82 ft / 25 m UK-PREC-APP CENTERLINE EDGE THRESHOLD CALVERT TDZ

EGNH

Details ICAO EGNH (BLK)
Name Blackpool
Region United Kingdom
Timezone Europe/London (UTC+1.0)
Stats Elevation 34 ft / 10 m (AMSL)
Location 53.771700° -3.033150°
Runways 2
Magnetic Variation 1.253° W

METAR

EGNH 121720Z 29011KT 9999 FEW025 16/10 Q1026

Decode

TAF

Not found

Destination Runways

ID Width Length Bearing (true/mag) Surface Threshold Overrun Markings Lighting
10 148 ft / 45 m 6,116 ft / 1,864 m 94.65° / 95.90° ASPHALT 0 ft / 0 m 0 ft / 0 m VISUAL EDGE THRESHOLD MALS
13 77 ft / 24 m 3,277 ft / 999 m 127.39° / 128.64° ASPHALT 492 ft / 150 m 0 ft / 0 m VISUAL
28 148 ft / 45 m 6,116 ft / 1,864 m 274.67° / 275.92° ASPHALT 0 ft / 0 m 0 ft / 0 m PREC-APP EDGE THRESHOLD MALS
31 77 ft / 24 m 3,277 ft / 999 m 307.40° / 308.65° ASPHALT 0 ft / 0 m 0 ft / 0 m VISUAL

Approach Navaids

Runway Type Ident Frequency Range Bearing (true/mag) Slope Elevation
28 LOC-ILS IBPL 108.15 MHz 18 nm / 33 km 274.66° / 275.91 ° - 34 ft / 10 m (AMSL)
28 GS IBPL 108.15 MHz 10 nm / 19 km 274.66° / 275.91 ° 3.00° 34 ft / 10 m (AMSL)

Popular Alternatives